Airfield :
LOGIN :

Register | Disclaimer

   EN    FR    IT 

 










Legend :    VFR   Marginal VFR   IFR   Intensive IFR   Very Intensive IFR
Visi :
Ceiling :
>= 8 km
>= 3000ft
5 to 8 km
1000 to 3000 ft
1500m to 5 km
500 to 1000 ft
800 to 1500m
200 to 500 ft
< 800m
< 200 ft
Symbols :   Thunderstorms  Fog  Heavy snow  Heavy precipitations  Wind > 20 kt
SIGMETs :     Misc.  Thunderstorms  Icing  Turbulence  Mountain Waves  Volcanic Ashes






- Airport Elevation : 1470 ft
- IATA code : KLU


LOWK - Klagenfurt

CURRENT METAR :
  • 041050Z VRB05KT 9999 FEW060 29/16 Q1018 NOSIG

EXPIRED METARs :
  • 041020Z 11004KT 060V170 9999 FEW060 29/17 Q1019 NOSIG
  • 040950Z VRB02KT 9999 FEW060 27/16 Q1019 NOSIG
  • 040920Z VRB03KT 9999 FEW060 26/17 Q1019 NOSIG
  • 040850Z VRB02KT 9999 FEW060 25/17 Q1019 NOSIG

TAF COR TAF LOWK
Valid from the 04 at 06:00 until the 05 at 06:00 UTC


040515Z 0406/0506 VRB05KT 9999 SCT060 BKN100 TX30/0412Z TN18/0503Z
TEMPO 0406/0408 -SHRA
TEMPO 0411/0506 FEW050CB
TEMPO 0416/0422 28015G25KT TSRA
PROB30
TEMPO 0416/0420 28020G35KT 1400 +TSRAGR
TEMPO 0420/0506 SHRA TSRA



MET'MAP, your aeronautical weather chart ! - Copyright ORBIFLY December 2007 - Disclaimer

ORBIFLY MET'MAP TEAM :

Programming & Development : Alexandra Zaïnal
Original concept : Baudouin d'Aumeries
Technical & hardware support : Manuel Goepfert
Assistance : Marc-Olivier Méhu




SOURCES & CREDITS :

   NOAA